createdAt,value
2019-01-27T00:00:11.362Z,992.99
2019-01-27T00:01:11.398Z,992.98
2019-01-27T00:02:11.571Z,992.90
2019-01-27T00:03:11.452Z,992.91
2019-01-27T00:04:11.368Z,992.91
2019-01-27T00:05:11.393Z,992.89
2019-01-27T00:06:11.372Z,992.91
2019-01-27T00:07:11.378Z,992.94
2019-01-27T00:08:13.647Z,992.91
2019-01-27T00:09:11.436Z,992.91
2019-01-27T00:10:11.412Z,992.85
2019-01-27T00:11:11.417Z,992.89
2019-01-27T00:12:11.403Z,992.86
2019-01-27T00:13:11.489Z,992.82
2019-01-27T00:14:11.425Z,992.87
2019-01-27T00:15:11.438Z,992.87
2019-01-27T00:16:11.454Z,992.90
2019-01-27T00:17:11.464Z,992.84
2019-01-27T00:18:11.437Z,992.84
2019-01-27T00:19:11.457Z,992.90
2019-01-27T00:20:11.435Z,992.85
2019-01-27T00:21:11.472Z,992.84
2019-01-27T00:22:11.445Z,992.85
2019-01-27T00:23:11.474Z,992.81
2019-01-27T00:24:11.525Z,992.79
2019-01-27T00:25:11.458Z,992.78
2019-01-27T00:26:11.487Z,992.77
2019-01-27T00:27:11.469Z,992.77
2019-01-27T00:28:11.477Z,992.80
2019-01-27T00:29:11.481Z,992.81
2019-01-27T00:30:11.698Z,992.76
2019-01-27T00:31:11.530Z,992.74
2019-01-27T00:32:11.527Z,992.74
2019-01-27T00:33:11.484Z,992.73
2019-01-27T00:34:11.494Z,992.71
2019-01-27T00:35:11.526Z,992.69
2019-01-27T00:36:11.527Z,992.68
2019-01-27T00:37:11.542Z,992.68
2019-01-27T00:38:11.536Z,992.66
2019-01-27T00:39:11.617Z,992.64
2019-01-27T00:40:11.520Z,992.61
2019-01-27T00:41:11.525Z,992.59
2019-01-27T00:42:11.690Z,992.53
2019-01-27T00:43:11.542Z,992.57
2019-01-27T00:44:11.568Z,992.55
2019-01-27T00:45:11.536Z,992.56
2019-01-27T00:46:11.556Z,992.55
2019-01-27T00:47:11.538Z,992.58
2019-01-27T00:48:11.593Z,992.54
2019-01-27T00:49:11.549Z,992.55
2019-01-27T00:50:11.551Z,992.50
2019-01-27T00:51:11.587Z,992.56
2019-01-27T00:52:11.578Z,992.55
2019-01-27T00:53:11.575Z,992.51
2019-01-27T00:54:11.599Z,992.41
2019-01-27T00:55:11.600Z,992.42
2019-01-27T00:56:11.596Z,992.42
2019-01-27T00:57:11.623Z,992.45
2019-01-27T00:58:11.590Z,992.43
2019-01-27T00:59:11.583Z,992.40
2019-01-27T01:00:11.602Z,992.43
2019-01-27T01:01:11.602Z,992.37
2019-01-27T01:02:11.669Z,992.37
2019-01-27T01:03:11.610Z,992.38
2019-01-27T01:04:11.627Z,992.37
2019-01-27T01:05:11.632Z,992.38
2019-01-27T01:06:11.651Z,992.38
2019-01-27T01:07:11.629Z,992.34
2019-01-27T01:08:11.695Z,992.36
2019-01-27T01:09:11.627Z,992.33
2019-01-27T01:10:11.644Z,992.34
2019-01-27T01:11:11.693Z,992.30
2019-01-27T01:12:11.652Z,992.31
2019-01-27T01:13:11.654Z,992.30
2019-01-27T01:14:11.672Z,992.29
2019-01-27T01:15:11.671Z,992.28
2019-01-27T01:16:11.666Z,992.20
2019-01-27T01:17:11.685Z,992.20
2019-01-27T01:18:11.674Z,992.18
2019-01-27T01:19:11.676Z,992.14
2019-01-27T01:20:11.673Z,992.16
2019-01-27T01:21:11.683Z,992.16
2019-01-27T01:22:11.706Z,992.12
2019-01-27T01:23:11.680Z,992.11
2019-01-27T01:24:11.696Z,992.09
2019-01-27T01:25:11.706Z,992.08
2019-01-27T01:26:11.690Z,992.04
2019-01-27T01:27:11.716Z,992.05
2019-01-27T01:28:11.736Z,992.05
2019-01-27T01:29:11.719Z,992.01
2019-01-27T01:30:11.738Z,991.91
2019-01-27T01:31:11.724Z,991.96
2019-01-27T01:32:11.725Z,991.96
2019-01-27T01:33:11.766Z,991.91
2019-01-27T01:34:11.760Z,991.93
2019-01-27T01:35:11.730Z,991.95
2019-01-27T01:36:11.744Z,991.93
2019-01-27T01:37:11.754Z,991.94
2019-01-27T01:38:11.776Z,991.93
2019-01-27T01:39:11.776Z,991.91
2019-01-27T01:40:11.754Z,991.89
2019-01-27T01:41:11.765Z,991.87
2019-01-27T01:42:11.757Z,991.81
2019-01-27T01:43:11.781Z,991.81
2019-01-27T01:44:11.809Z,991.77
2019-01-27T01:45:11.776Z,991.74
2019-01-27T01:46:11.783Z,991.68
2019-01-27T01:47:11.774Z,991.65
2019-01-27T01:48:11.791Z,991.60
2019-01-27T01:49:11.805Z,991.56
2019-01-27T01:50:11.788Z,991.54
2019-01-27T01:51:11.826Z,991.52
2019-01-27T01:52:11.803Z,991.50
2019-01-27T01:53:11.824Z,991.48
2019-01-27T01:54:11.831Z,991.44
2019-01-27T01:55:11.867Z,991.45
2019-01-27T01:56:11.913Z,991.43
2019-01-27T01:57:11.821Z,991.40
2019-01-27T01:58:11.835Z,991.40
2019-01-27T01:59:11.859Z,991.39
2019-01-27T02:00:11.836Z,991.36
2019-01-27T02:01:11.829Z,991.36
2019-01-27T02:02:11.861Z,991.36
2019-01-27T02:03:11.851Z,991.30
2019-01-27T02:04:11.904Z,991.31
2019-01-27T02:05:11.927Z,991.28
2019-01-27T02:06:11.867Z,991.25
2019-01-27T02:07:11.866Z,991.27
2019-01-27T02:08:11.882Z,991.22
2019-01-27T02:09:11.880Z,991.24
2019-01-27T02:10:11.867Z,991.18
2019-01-27T02:11:11.901Z,991.17
2019-01-27T02:12:11.899Z,991.16
2019-01-27T02:13:11.874Z,991.11
2019-01-27T02:14:11.882Z,991.12
2019-01-27T02:15:11.881Z,991.09
2019-01-27T02:16:11.906Z,991.04
2019-01-27T02:17:11.930Z,991.05
2019-01-27T02:18:11.895Z,991.08
2019-01-27T02:19:11.932Z,991.05
2019-01-27T02:20:11.917Z,991.02
2019-01-27T02:21:11.939Z,991.00
2019-01-27T02:22:11.928Z,990.98
2019-01-27T02:23:11.926Z,990.94
2019-01-27T02:24:11.925Z,990.93
2019-01-27T02:25:11.933Z,990.92
2019-01-27T02:26:12.003Z,990.91
2019-01-27T02:27:11.950Z,990.87
2019-01-27T02:28:11.985Z,990.87
2019-01-27T02:29:11.939Z,990.86
2019-01-27T02:30:11.961Z,990.88
2019-01-27T02:31:12.047Z,990.85
2019-01-27T02:32:11.985Z,990.84
2019-01-27T02:33:11.973Z,990.76
2019-01-27T02:34:11.971Z,990.75
2019-01-27T02:35:11.979Z,990.72
2019-01-27T02:36:11.979Z,990.70
2019-01-27T02:37:12.027Z,990.71
2019-01-27T02:38:12.000Z,990.70
2019-01-27T02:39:11.988Z,990.70
2019-01-27T02:40:12.007Z,990.65
2019-01-27T02:41:11.989Z,990.63
2019-01-27T02:42:11.997Z,990.57
2019-01-27T02:43:12.035Z,990.53
2019-01-27T02:44:11.997Z,990.50
2019-01-27T02:45:12.043Z,990.49
2019-01-27T02:46:12.027Z,990.44
2019-01-27T02:47:12.028Z,990.46
2019-01-27T02:48:12.013Z,990.43
2019-01-27T02:49:12.046Z,990.39
2019-01-27T02:50:12.035Z,990.38
2019-01-27T02:51:12.043Z,990.35
2019-01-27T02:52:12.039Z,990.34
2019-01-27T02:53:12.075Z,990.33
2019-01-27T02:54:12.078Z,990.28
2019-01-27T02:55:12.059Z,990.27
2019-01-27T02:56:12.067Z,990.24
2019-01-27T02:57:12.070Z,990.20
2019-01-27T02:58:12.075Z,990.18
2019-01-27T02:59:12.082Z,990.20
2019-01-27T03:00:12.088Z,990.18
2019-01-27T03:01:12.085Z,990.16
2019-01-27T03:02:12.080Z,990.16
2019-01-27T03:03:12.079Z,990.17
2019-01-27T03:04:12.144Z,990.12
2019-01-27T03:05:12.094Z,990.05
2019-01-27T03:06:12.079Z,990.05
2019-01-27T03:07:12.087Z,990.04
2019-01-27T03:08:12.138Z,990.02
2019-01-27T03:09:12.096Z,989.98
2019-01-27T03:10:12.115Z,989.98
2019-01-27T03:11:12.155Z,989.93
2019-01-27T03:12:12.121Z,989.96
2019-01-27T03:13:12.223Z,989.93
2019-01-27T03:14:12.105Z,989.91
2019-01-27T03:15:12.189Z,989.88
2019-01-27T03:16:12.142Z,989.88
2019-01-27T03:17:12.133Z,989.87
2019-01-27T03:18:12.132Z,989.85
2019-01-27T03:19:12.136Z,989.85
2019-01-27T03:20:12.137Z,989.79
2019-01-27T03:21:12.171Z,989.80
2019-01-27T03:22:12.189Z,989.81
2019-01-27T03:23:12.168Z,989.80
2019-01-27T03:24:12.204Z,989.81
2019-01-27T03:25:12.147Z,989.79
2019-01-27T03:26:12.198Z,989.77
2019-01-27T03:27:12.205Z,989.74
2019-01-27T03:28:12.175Z,989.76
2019-01-27T03:29:12.180Z,989.76
2019-01-27T03:30:12.171Z,989.77
2019-01-27T03:31:12.189Z,989.76
2019-01-27T03:32:12.369Z,989.77
2019-01-27T03:33:12.210Z,989.73
2019-01-27T03:34:12.207Z,989.72
2019-01-27T03:35:12.209Z,989.70
2019-01-27T03:36:12.209Z,989.71
2019-01-27T03:37:12.226Z,989.70
2019-01-27T03:38:12.252Z,989.68
2019-01-27T03:39:12.204Z,989.68
2019-01-27T03:40:12.271Z,989.67
2019-01-27T03:41:12.220Z,989.67
2019-01-27T03:42:12.219Z,989.64
2019-01-27T03:43:12.226Z,989.67
2019-01-27T03:44:12.313Z,989.67
2019-01-27T03:45:12.282Z,989.58
2019-01-27T03:46:12.280Z,989.57
2019-01-27T03:47:12.247Z,989.61
2019-01-27T03:48:12.262Z,989.58
2019-01-27T03:49:12.251Z,989.57
2019-01-27T03:50:12.270Z,989.52
2019-01-27T03:51:12.264Z,989.48
2019-01-27T03:52:12.275Z,989.48
2019-01-27T03:53:12.255Z,989.45
2019-01-27T03:54:12.271Z,989.43
2019-01-27T03:55:12.326Z,989.46
2019-01-27T03:56:12.273Z,989.41
2019-01-27T03:57:12.321Z,989.41
2019-01-27T03:58:12.320Z,989.38
2019-01-27T03:59:12.284Z,989.33
2019-01-27T04:00:12.283Z,989.34
2019-01-27T04:01:12.317Z,989.33
2019-01-27T04:02:12.318Z,989.30
2019-01-27T04:03:12.302Z,989.28
2019-01-27T04:04:12.367Z,989.22
2019-01-27T04:05:12.331Z,989.21
2019-01-27T04:06:12.314Z,989.16
2019-01-27T04:07:12.330Z,989.15
2019-01-27T04:08:12.344Z,989.12
2019-01-27T04:09:12.343Z,989.16
2019-01-27T04:10:12.337Z,989.14
2019-01-27T04:11:12.331Z,989.07
2019-01-27T04:12:12.374Z,989.04
2019-01-27T04:13:12.358Z,989.09
2019-01-27T04:14:12.382Z,989.03
2019-01-27T04:15:12.353Z,989.01
2019-01-27T04:16:12.368Z,989.00
2019-01-27T04:17:12.364Z,988.98
2019-01-27T04:18:12.385Z,989.02
2019-01-27T04:19:12.426Z,988.99
2019-01-27T04:20:12.367Z,988.96
2019-01-27T04:21:12.383Z,988.93
2019-01-27T04:22:12.403Z,988.89
2019-01-27T04:23:12.377Z,988.91
2019-01-27T04:24:12.427Z,988.86
2019-01-27T04:25:12.409Z,988.81
2019-01-27T04:26:12.412Z,988.83
2019-01-27T04:27:12.415Z,988.77
2019-01-27T04:28:12.400Z,988.77
2019-01-27T04:29:12.414Z,988.76
2019-01-27T04:30:12.438Z,988.75
2019-01-27T04:31:12.419Z,988.80
2019-01-27T04:32:12.427Z,988.80
2019-01-27T04:33:12.432Z,988.79
2019-01-27T04:34:12.423Z,988.80
2019-01-27T04:35:12.433Z,988.81
2019-01-27T04:36:12.502Z,988.73
2019-01-27T04:37:12.433Z,988.78
2019-01-27T04:38:12.439Z,988.77
2019-01-27T04:39:12.430Z,988.71
2019-01-27T04:40:12.464Z,988.68
2019-01-27T04:41:12.451Z,988.70
2019-01-27T04:42:12.467Z,988.68
2019-01-27T04:43:12.474Z,988.65
2019-01-27T04:44:12.461Z,988.66
2019-01-27T04:45:12.464Z,988.60
2019-01-27T04:46:12.494Z,988.62
2019-01-27T04:47:12.485Z,988.61
2019-01-27T04:48:12.477Z,988.56
2019-01-27T04:49:12.492Z,988.56
2019-01-27T04:50:12.499Z,988.54
2019-01-27T04:51:12.525Z,988.51
2019-01-27T04:52:12.490Z,988.50
2019-01-27T04:53:12.569Z,988.57
2019-01-27T04:54:12.573Z,988.49
2019-01-27T04:55:12.495Z,988.48
2019-01-27T04:56:12.500Z,988.47
2019-01-27T04:57:12.509Z,988.45
2019-01-27T04:58:12.520Z,988.40
2019-01-27T04:59:12.548Z,988.39
2019-01-27T05:00:12.521Z,988.37
2019-01-27T05:01:12.535Z,988.37
2019-01-27T05:02:12.574Z,988.39
2019-01-27T05:03:12.574Z,988.39
2019-01-27T05:04:12.537Z,988.42
2019-01-27T05:05:12.543Z,988.37
2019-01-27T05:06:12.545Z,988.37
2019-01-27T05:07:12.546Z,988.37
2019-01-27T05:08:12.589Z,988.34
2019-01-27T05:09:12.578Z,988.31
2019-01-27T05:10:12.552Z,988.33
2019-01-27T05:11:12.553Z,988.26
2019-01-27T05:12:12.577Z,988.31
2019-01-27T05:13:12.570Z,988.29
2019-01-27T05:14:12.625Z,988.23
2019-01-27T05:15:12.595Z,988.24
2019-01-27T05:16:12.571Z,988.18
2019-01-27T05:17:12.589Z,988.14
2019-01-27T05:18:12.589Z,988.12
2019-01-27T05:19:12.691Z,988.12
2019-01-27T05:20:12.609Z,988.09
2019-01-27T05:21:12.602Z,988.08
2019-01-27T05:22:12.603Z,988.05
2019-01-27T05:23:12.609Z,988.04
2019-01-27T05:24:12.673Z,988.03
2019-01-27T05:25:12.633Z,987.99
2019-01-27T05:26:12.634Z,988.04
2019-01-27T05:27:12.619Z,988.07
2019-01-27T05:28:12.638Z,988.02
2019-01-27T05:29:12.652Z,988.03
2019-01-27T05:30:12.653Z,988.03
2019-01-27T05:31:12.637Z,988.00
2019-01-27T05:32:12.650Z,987.99
2019-01-27T05:33:12.633Z,987.93
2019-01-27T05:34:12.681Z,987.98
2019-01-27T05:35:12.667Z,987.92
2019-01-27T05:36:12.669Z,987.95
2019-01-27T05:37:12.660Z,987.98
2019-01-27T05:38:12.673Z,987.94
2019-01-27T05:39:12.668Z,987.93
2019-01-27T05:40:12.701Z,987.87
2019-01-27T05:41:12.685Z,987.88
2019-01-27T05:42:12.691Z,987.83
2019-01-27T05:43:12.691Z,987.82
2019-01-27T05:44:12.692Z,987.78
2019-01-27T05:45:12.695Z,987.71
2019-01-27T05:46:12.711Z,987.74
2019-01-27T05:47:12.720Z,987.70
2019-01-27T05:48:12.698Z,987.72
2019-01-27T05:49:12.710Z,987.73
2019-01-27T05:50:12.745Z,987.71
2019-01-27T05:51:12.746Z,987.69
2019-01-27T05:52:12.722Z,987.70
2019-01-27T05:53:12.742Z,987.67
2019-01-27T05:54:12.733Z,987.68
2019-01-27T05:55:12.769Z,987.69
2019-01-27T05:56:12.731Z,987.69
2019-01-27T05:57:12.735Z,987.71
2019-01-27T05:58:12.753Z,987.70
2019-01-27T05:59:12.764Z,987.71
2019-01-27T06:00:12.752Z,987.65
2019-01-27T06:01:12.768Z,987.63
2019-01-27T06:02:12.762Z,987.59
2019-01-27T06:03:12.783Z,987.61
2019-01-27T06:04:12.749Z,987.61
2019-01-27T06:05:12.774Z,987.57
2019-01-27T06:06:12.758Z,987.57
2019-01-27T06:07:12.772Z,987.54
2019-01-27T06:08:12.777Z,987.54
2019-01-27T06:09:12.792Z,987.57
2019-01-27T06:10:12.789Z,987.53
2019-01-27T06:11:12.867Z,987.58
2019-01-27T06:12:12.794Z,987.54
2019-01-27T06:13:12.797Z,987.56
2019-01-27T06:14:12.812Z,987.49
2019-01-27T06:15:12.815Z,987.46
2019-01-27T06:16:12.887Z,987.44
2019-01-27T06:17:12.829Z,987.42
2019-01-27T06:18:12.815Z,987.41
2019-01-27T06:19:12.809Z,987.33
2019-01-27T06:20:12.840Z,987.30
2019-01-27T06:21:12.889Z,987.30
2019-01-27T06:22:12.856Z,987.24
2019-01-27T06:23:12.833Z,987.22
2019-01-27T06:24:12.823Z,987.20
2019-01-27T06:25:12.905Z,987.20
2019-01-27T06:26:12.843Z,987.22
2019-01-27T06:27:12.838Z,987.19
2019-01-27T06:28:12.855Z,987.19
2019-01-27T06:29:12.882Z,987.17
2019-01-27T06:30:12.888Z,987.18
2019-01-27T06:31:12.922Z,987.19
2019-01-27T06:32:12.860Z,987.16
2019-01-27T06:33:12.882Z,987.17
2019-01-27T06:34:12.873Z,987.16
2019-01-27T06:35:12.901Z,987.14
2019-01-27T06:36:12.913Z,987.13
2019-01-27T06:37:12.920Z,987.13
2019-01-27T06:38:12.914Z,987.14
2019-01-27T06:39:12.891Z,987.16
2019-01-27T06:40:12.915Z,987.12
2019-01-27T06:41:12.907Z,987.14
2019-01-27T06:42:12.890Z,987.16
2019-01-27T06:43:12.948Z,987.15
2019-01-27T06:44:12.910Z,987.13
2019-01-27T06:45:12.917Z,987.04
2019-01-27T06:46:12.956Z,987.10
2019-01-27T06:47:12.926Z,987.08
2019-01-27T06:48:12.931Z,987.10
2019-01-27T06:49:12.922Z,987.05
2019-01-27T06:50:12.941Z,987.10
2019-01-27T06:51:12.964Z,987.05
2019-01-27T06:52:12.970Z,987.04
2019-01-27T06:53:12.978Z,987.02
2019-01-27T06:54:12.974Z,987.00
2019-01-27T06:55:12.944Z,987.04
2019-01-27T06:56:12.951Z,987.02
2019-01-27T06:57:13.030Z,987.00
2019-01-27T06:58:12.963Z,986.98
2019-01-27T06:59:12.970Z,986.93
2019-01-27T07:00:12.971Z,986.92
2019-01-27T07:01:12.975Z,986.87
2019-01-27T07:02:12.970Z,986.90
2019-01-27T07:03:12.998Z,986.92
2019-01-27T07:04:12.977Z,986.92
2019-01-27T07:05:13.054Z,986.88
2019-01-27T07:06:12.994Z,986.86
2019-01-27T07:07:13.014Z,986.85
2019-01-27T07:08:13.022Z,986.84
2019-01-27T07:09:13.007Z,986.87
2019-01-27T07:10:13.012Z,986.89
2019-01-27T07:11:13.069Z,986.85
2019-01-27T07:12:13.029Z,986.78
2019-01-27T07:13:13.833Z,986.79
2019-01-27T07:14:13.113Z,986.80
2019-01-27T07:15:13.046Z,986.77
2019-01-27T07:16:13.043Z,986.80
2019-01-27T07:17:13.072Z,986.82
2019-01-27T07:18:13.043Z,986.80
2019-01-27T07:19:13.035Z,986.81
2019-01-27T07:20:13.056Z,986.79
2019-01-27T07:21:13.049Z,986.74
2019-01-27T07:22:13.049Z,986.68
2019-01-27T07:23:13.117Z,986.69
2019-01-27T07:24:13.063Z,986.69
2019-01-27T07:25:13.078Z,986.73
2019-01-27T07:26:13.076Z,986.71
2019-01-27T07:27:13.110Z,986.73
2019-01-27T07:28:13.080Z,986.68
2019-01-27T07:29:13.070Z,986.65
2019-01-27T07:30:13.247Z,986.66
2019-01-27T07:31:13.135Z,986.67
2019-01-27T07:32:13.100Z,986.69
2019-01-27T07:33:13.320Z,986.67
2019-01-27T07:34:13.118Z,986.67
2019-01-27T07:35:13.104Z,986.62
2019-01-27T07:36:13.109Z,986.61
2019-01-27T07:37:13.151Z,986.60
2019-01-27T07:38:13.228Z,986.61
2019-01-27T07:39:13.134Z,986.59
2019-01-27T07:40:13.161Z,986.57
2019-01-27T07:41:13.135Z,986.53
2019-01-27T07:42:13.165Z,986.53
2019-01-27T07:43:13.147Z,986.51
2019-01-27T07:44:13.174Z,986.50
2019-01-27T07:45:13.143Z,986.49
2019-01-27T07:46:13.193Z,986.49
2019-01-27T07:47:13.238Z,986.52
2019-01-27T07:48:13.171Z,986.50
2019-01-27T07:49:13.184Z,986.50
2019-01-27T07:50:13.222Z,986.51
2019-01-27T07:51:13.209Z,986.48
2019-01-27T07:52:13.181Z,986.49
2019-01-27T07:53:13.195Z,986.47
2019-01-27T07:54:13.238Z,986.46
2019-01-27T07:55:13.198Z,986.45
2019-01-27T07:56:13.177Z,986.40
2019-01-27T07:57:13.210Z,986.39
2019-01-27T07:58:13.296Z,986.36
2019-01-27T07:59:13.225Z,986.36
2019-01-27T08:00:13.191Z,986.35
2019-01-27T08:01:13.282Z,986.30
2019-01-27T08:02:13.391Z,986.31
2019-01-27T08:03:13.250Z,986.27
2019-01-27T08:04:13.305Z,986.29
2019-01-27T08:05:13.420Z,986.25
2019-01-27T08:06:13.314Z,986.24
2019-01-27T08:07:13.266Z,986.18
2019-01-27T08:08:13.251Z,986.24
2019-01-27T08:09:13.230Z,986.30
2019-01-27T08:10:13.302Z,986.28
2019-01-27T08:11:13.239Z,986.29
2019-01-27T08:12:13.257Z,986.29
2019-01-27T08:13:13.262Z,986.29
2019-01-27T08:14:13.259Z,986.27
2019-01-27T08:15:13.258Z,986.20
2019-01-27T08:16:13.307Z,986.22
2019-01-27T08:17:13.266Z,986.14
2019-01-27T08:18:13.283Z,986.16
2019-01-27T08:19:13.295Z,986.20
2019-01-27T08:20:13.506Z,986.18
2019-01-27T08:21:13.507Z,986.15
2019-01-27T08:22:13.416Z,986.21
2019-01-27T08:23:13.782Z,986.19
2019-01-27T08:24:13.314Z,986.21
2019-01-27T08:25:13.328Z,986.19
2019-01-27T08:26:13.333Z,986.15
2019-01-27T08:27:13.316Z,986.14
2019-01-27T08:28:13.321Z,986.09
2019-01-27T08:29:13.320Z,986.09
2019-01-27T08:30:13.345Z,986.09
2019-01-27T08:31:13.377Z,986.11
2019-01-27T08:32:13.373Z,986.11
2019-01-27T08:33:13.350Z,986.09
2019-01-27T08:34:13.732Z,986.09
2019-01-27T08:35:13.343Z,986.11
2019-01-27T08:36:13.354Z,986.10
2019-01-27T08:37:14.696Z,986.07
2019-01-27T08:38:13.368Z,986.04
2019-01-27T08:39:13.375Z,986.07
2019-01-27T08:40:13.374Z,986.07
2019-01-27T08:41:13.374Z,986.05
2019-01-27T08:42:13.387Z,986.03
2019-01-27T08:43:13.389Z,986.05
2019-01-27T08:44:13.414Z,986.02
2019-01-27T08:45:13.411Z,986.03
2019-01-27T08:46:13.403Z,986.03
2019-01-27T08:47:13.403Z,986.03
2019-01-27T08:48:13.426Z,986.02
2019-01-27T08:49:13.426Z,986.05
2019-01-27T08:50:13.433Z,986.01
2019-01-27T08:51:13.435Z,986.04
2019-01-27T08:52:13.430Z,985.98
2019-01-27T08:53:13.419Z,986.02
2019-01-27T08:54:13.513Z,985.97
2019-01-27T08:55:13.457Z,985.98
2019-01-27T08:56:13.447Z,985.95
2019-01-27T08:57:13.451Z,985.96
2019-01-27T08:58:13.487Z,985.98
2019-01-27T08:59:13.517Z,985.93
2019-01-27T09:00:14.236Z,985.94
2019-01-27T09:01:13.465Z,985.91
2019-01-27T09:02:13.478Z,985.93
2019-01-27T09:03:13.524Z,985.89
2019-01-27T09:04:13.495Z,985.92
2019-01-27T09:05:13.548Z,985.88
2019-01-27T09:06:13.537Z,985.86
2019-01-27T09:07:13.563Z,985.88
2019-01-27T09:08:13.534Z,985.89
2019-01-27T09:09:13.490Z,985.85
2019-01-27T09:10:13.511Z,985.80
2019-01-27T09:11:13.780Z,985.80
2019-01-27T09:12:13.547Z,985.82
2019-01-27T09:13:13.587Z,985.80
2019-01-27T09:14:13.511Z,985.80
2019-01-27T09:15:13.544Z,985.79
2019-01-27T09:16:13.554Z,985.76
2019-01-27T09:17:13.568Z,985.79
2019-01-27T09:18:13.543Z,985.79
2019-01-27T09:19:13.545Z,985.80
2019-01-27T09:20:13.558Z,985.78
2019-01-27T09:21:13.587Z,985.80
2019-01-27T09:22:13.566Z,985.76
2019-01-27T09:23:13.592Z,985.76
2019-01-27T09:24:13.609Z,985.72
2019-01-27T09:25:13.627Z,985.71
2019-01-27T09:26:13.574Z,985.70
2019-01-27T09:27:13.596Z,985.73
2019-01-27T09:28:13.593Z,985.69
2019-01-27T09:29:13.594Z,985.69
2019-01-27T09:30:13.617Z,985.71
2019-01-27T09:31:13.664Z,985.67
2019-01-27T09:32:13.602Z,985.65
2019-01-27T09:33:13.614Z,985.60
2019-01-27T09:34:13.611Z,985.60
2019-01-27T09:35:13.613Z,985.62
2019-01-27T09:36:13.650Z,985.59
2019-01-27T09:37:13.690Z,985.59
2019-01-27T09:38:13.670Z,985.60
2019-01-27T09:39:13.668Z,985.62
2019-01-27T09:40:13.665Z,985.60
2019-01-27T09:41:13.679Z,985.56
2019-01-27T09:42:13.650Z,985.55
2019-01-27T09:43:13.719Z,985.53
2019-01-27T09:44:13.672Z,985.55
2019-01-27T09:45:13.675Z,985.52
2019-01-27T09:46:13.722Z,985.53
2019-01-27T09:47:13.696Z,985.49
2019-01-27T09:48:13.728Z,985.51
2019-01-27T09:49:13.727Z,985.47
2019-01-27T09:50:13.704Z,985.46
2019-01-27T09:51:13.719Z,985.41
2019-01-27T09:52:13.728Z,985.39
2019-01-27T09:53:13.823Z,985.41
2019-01-27T09:54:13.780Z,985.44
2019-01-27T09:55:13.757Z,985.41
2019-01-27T09:56:13.735Z,985.40
2019-01-27T09:57:13.767Z,985.42
2019-01-27T09:58:13.744Z,985.40
2019-01-27T09:59:13.746Z,985.36
2019-01-27T10:00:13.850Z,985.41
2019-01-27T10:01:13.786Z,985.40
2019-01-27T10:02:13.778Z,985.36
2019-01-27T10:03:13.771Z,985.35
2019-01-27T10:04:13.840Z,985.36
2019-01-27T10:05:13.807Z,985.33
2019-01-27T10:06:15.020Z,985.30
2019-01-27T10:07:13.812Z,985.31
2019-01-27T10:08:13.818Z,985.34
2019-01-27T10:09:13.833Z,985.32
2019-01-27T10:10:13.814Z,985.29
2019-01-27T10:11:13.845Z,985.29
2019-01-27T10:12:13.851Z,985.25
2019-01-27T10:13:13.918Z,985.22
2019-01-27T10:14:13.836Z,985.24
2019-01-27T10:15:13.900Z,985.24
2019-01-27T10:16:13.870Z,985.19
2019-01-27T10:17:13.854Z,985.20
2019-01-27T10:18:13.863Z,985.19
2019-01-27T10:19:13.867Z,985.23
2019-01-27T10:20:13.895Z,985.21
2019-01-27T10:21:13.918Z,985.18
2019-01-27T10:22:13.865Z,985.16
2019-01-27T10:23:13.886Z,985.20
2019-01-27T10:24:13.881Z,985.15
2019-01-27T10:25:16.094Z,985.17
2019-01-27T10:26:13.904Z,985.13
2019-01-27T10:27:13.957Z,985.09
2019-01-27T10:28:13.898Z,985.10
2019-01-27T10:29:13.909Z,985.08
2019-01-27T10:30:13.939Z,985.09
2019-01-27T10:31:13.915Z,985.09
2019-01-27T10:32:14.112Z,985.05
2019-01-27T10:33:13.967Z,985.03
2019-01-27T10:34:13.968Z,985.03
2019-01-27T10:35:13.974Z,985.02
2019-01-27T10:36:13.941Z,985.04
2019-01-27T10:37:13.975Z,984.97
2019-01-27T10:38:14.028Z,985.00
2019-01-27T10:39:14.000Z,984.97
2019-01-27T10:40:13.978Z,985.00
2019-01-27T10:41:13.993Z,984.97
2019-01-27T10:42:13.988Z,984.95
2019-01-27T10:43:14.111Z,985.00
2019-01-27T10:44:14.107Z,984.97
2019-01-27T10:45:14.033Z,984.95
2019-01-27T10:46:14.006Z,984.94
2019-01-27T10:47:14.216Z,984.92
2019-01-27T10:48:14.067Z,984.91
2019-01-27T10:49:15.297Z,984.92
2019-01-27T10:50:14.150Z,984.90
2019-01-27T10:51:14.043Z,984.89
2019-01-27T10:52:14.081Z,984.90
2019-01-27T10:53:14.110Z,984.86
2019-01-27T10:54:14.168Z,984.89
2019-01-27T10:55:14.433Z,984.81
2019-01-27T10:56:14.082Z,984.78
2019-01-27T10:57:14.065Z,984.79
2019-01-27T10:58:14.072Z,984.78
2019-01-27T10:59:14.234Z,984.76
2019-01-27T11:00:14.240Z,984.72
2019-01-27T11:01:14.092Z,984.74
2019-01-27T11:02:14.144Z,984.68
2019-01-27T11:03:14.125Z,984.67
2019-01-27T11:04:14.135Z,984.68
2019-01-27T11:05:14.170Z,984.65
2019-01-27T11:06:14.130Z,984.59
2019-01-27T11:07:14.124Z,984.60
2019-01-27T11:08:14.193Z,984.59
2019-01-27T11:09:14.121Z,984.60
2019-01-27T11:10:14.137Z,984.53
2019-01-27T11:11:14.143Z,984.48
2019-01-27T11:12:14.199Z,984.54
2019-01-27T11:13:14.213Z,984.53
2019-01-27T11:14:14.308Z,984.56
2019-01-27T11:15:14.286Z,984.58
2019-01-27T11:16:14.216Z,984.57
2019-01-27T11:17:14.258Z,984.55
2019-01-27T11:18:14.218Z,984.58
2019-01-27T11:19:14.234Z,984.59
2019-01-27T11:20:14.299Z,984.55
2019-01-27T11:21:14.275Z,984.55
2019-01-27T11:22:14.241Z,984.53
2019-01-27T11:23:14.299Z,984.53
2019-01-27T11:24:14.285Z,984.51
2019-01-27T11:25:14.276Z,984.51
2019-01-27T11:26:14.324Z,984.47
2019-01-27T11:27:14.371Z,984.42
2019-01-27T11:28:14.247Z,984.45
2019-01-27T11:29:14.271Z,984.37
2019-01-27T11:30:14.442Z,984.37
2019-01-27T11:31:14.274Z,984.35
2019-01-27T11:32:14.270Z,984.35
2019-01-27T11:33:14.365Z,984.33
2019-01-27T11:34:14.283Z,984.34
2019-01-27T11:35:14.313Z,984.31
2019-01-27T11:36:14.284Z,984.26
2019-01-27T11:37:14.293Z,984.23
2019-01-27T11:38:14.312Z,984.20
2019-01-27T11:39:14.340Z,984.17
2019-01-27T11:40:14.387Z,984.17
2019-01-27T11:41:14.313Z,984.15
2019-01-27T11:42:14.294Z,984.13
2019-01-27T11:43:14.314Z,984.13
2019-01-27T11:44:14.335Z,984.13
2019-01-27T11:45:14.350Z,984.13
2019-01-27T11:46:14.366Z,984.12
2019-01-27T11:47:14.365Z,984.10
2019-01-27T11:48:14.359Z,984.09
2019-01-27T11:49:14.364Z,984.04
2019-01-27T11:50:14.404Z,983.97
2019-01-27T11:51:14.437Z,983.96
2019-01-27T11:52:15.616Z,983.97
2019-01-27T11:53:14.374Z,984.00
2019-01-27T11:54:14.410Z,983.99
2019-01-27T11:55:14.369Z,984.00
2019-01-27T11:56:14.411Z,984.01
2019-01-27T11:57:14.382Z,984.00
2019-01-27T11:58:14.406Z,984.03
2019-01-27T11:59:14.422Z,984.04
2019-01-27T12:00:14.573Z,983.97
2019-01-27T12:01:14.474Z,983.95
2019-01-27T12:02:14.442Z,983.97
2019-01-27T12:03:14.437Z,983.92
2019-01-27T12:04:14.447Z,983.90
2019-01-27T12:05:14.435Z,983.83
2019-01-27T12:06:14.452Z,983.88
2019-01-27T12:07:14.474Z,983.88
2019-01-27T12:08:14.531Z,983.88
2019-01-27T12:09:14.488Z,983.86
2019-01-27T12:10:14.512Z,983.85
2019-01-27T12:11:14.465Z,983.83
2019-01-27T12:12:14.501Z,983.79
2019-01-27T12:13:14.507Z,983.81
2019-01-27T12:14:14.517Z,983.73
2019-01-27T12:15:14.491Z,983.80
2019-01-27T12:16:14.486Z,983.70
2019-01-27T12:17:14.555Z,983.73
2019-01-27T12:18:14.539Z,983.73
2019-01-27T12:19:14.566Z,983.75
2019-01-27T12:20:14.613Z,983.76
2019-01-27T12:21:14.521Z,983.75
2019-01-27T12:22:14.528Z,983.75
2019-01-27T12:23:14.551Z,983.72
2019-01-27T12:24:14.560Z,983.75
2019-01-27T12:25:14.596Z,983.71
2019-01-27T12:26:14.585Z,983.73
2019-01-27T12:27:14.568Z,983.72
2019-01-27T12:28:14.641Z,983.69